Shanwei, China
Current Conditions -  °F | °C
As of 2:00 AM on Thursday 27 Nov 2014 (Local Time) from ZGOW Reporting Station
Broken Clouds Broken Clouds  
Wind Chill: 68°   Ceiling: 6000
Heat Index: 68°   Visibility: 5mi
Dew Point: 63°   Wind: 2mph
Humidity: 83%   Direction: NA
Pressure: 30"   Gusts: NA
Location:  22.78°N, 115.35°E
Report Text: ZGOW 261800Z VRB01MPS 8000 BKN060 20/17 Q1016 NOSIG
Loading
Personal Weather Stations






























Interactive Weather Map New forecast layout! Learn more

10-Day Weather Forecast

Advertisements
Track Severe Weather on mobile